createdAt,value
2023-03-18T00:00:43.652Z,9.94
2023-03-18T00:05:45.481Z,9.98
2023-03-18T00:10:46.680Z,9.98
2023-03-18T00:15:47.964Z,10.03
2023-03-18T00:20:49.156Z,10.05
2023-03-18T00:25:50.531Z,10.10
2023-03-18T00:30:51.767Z,10.13
2023-03-18T00:35:53.306Z,10.15
2023-03-18T00:41:01.162Z,10.16
2023-03-18T00:46:02.303Z,10.16
2023-03-18T00:51:03.882Z,10.08
2023-03-18T00:56:05.811Z,10.04
2023-03-18T01:01:07.239Z,10.05
2023-03-18T01:06:08.426Z,10.15
2023-03-18T01:11:09.571Z,10.16
2023-03-18T01:16:10.839Z,10.23
2023-03-18T01:21:12.114Z,10.25
2023-03-18T01:26:13.327Z,10.29
2023-03-18T01:31:15.355Z,10.24
2023-03-18T01:36:17.550Z,10.22
2023-03-18T01:41:18.870Z,10.20
2023-03-18T01:46:20.277Z,10.20
2023-03-18T01:51:21.542Z,10.20
2023-03-18T01:56:22.678Z,10.13
2023-03-18T02:01:23.934Z,10.13
2023-03-18T02:06:25.245Z,10.10
2023-03-18T02:11:27.042Z,10.08
2023-03-18T02:16:28.312Z,10.06
2023-03-18T02:21:29.615Z,10.03
2023-03-18T02:26:30.862Z,9.97
2023-03-18T02:31:32.007Z,9.84
2023-03-18T02:36:33.236Z,9.65
2023-03-18T02:41:34.421Z,9.53
2023-03-18T02:46:36.334Z,9.49
2023-03-18T02:51:37.570Z,9.60
2023-03-18T02:56:38.905Z,9.53
2023-03-18T03:01:40.118Z,9.41
2023-03-18T03:06:41.393Z,9.38
2023-03-18T03:11:42.811Z,9.29
2023-03-18T03:16:44.347Z,9.19
2023-03-18T03:21:45.568Z,9.13
2023-03-18T03:26:46.764Z,9.02
2023-03-18T03:31:47.972Z,8.94
2023-03-18T03:36:49.850Z,8.83
2023-03-18T03:41:51.162Z,8.80
2023-03-18T03:46:52.457Z,8.68
2023-03-18T03:51:53.705Z,8.70
2023-03-18T03:56:54.861Z,8.64
2023-03-18T04:01:57.030Z,8.63
2023-03-18T04:06:58.382Z,8.62
2023-03-18T04:11:59.566Z,8.62
2023-03-18T04:17:00.772Z,8.59
2023-03-18T04:22:02.186Z,8.55
2023-03-18T04:27:03.375Z,8.49
2023-03-18T04:32:04.574Z,8.45
2023-03-18T04:37:05.768Z,8.40
2023-03-18T04:42:07.334Z,8.39
2023-03-18T04:47:08.460Z,8.40
2023-03-18T04:52:09.727Z,8.43
2023-03-18T04:57:11.052Z,8.46
2023-03-18T05:02:12.244Z,8.61
2023-03-18T05:07:14.524Z,8.58
2023-03-18T05:12:15.903Z,8.50
2023-03-18T05:17:17.227Z,8.38
2023-03-18T05:22:18.461Z,8.31
2023-03-18T05:27:19.725Z,8.27
2023-03-18T05:32:20.945Z,8.27
2023-03-18T05:37:22.214Z,8.24
2023-03-18T05:42:23.430Z,8.32
2023-03-18T05:47:24.608Z,8.43
2023-03-18T05:52:25.832Z,8.52
2023-03-18T05:57:26.957Z,8.63
2023-03-18T06:02:28.264Z,8.73
2023-03-18T06:07:30.446Z,8.81
2023-03-18T06:12:31.599Z,8.85
2023-03-18T06:17:32.827Z,8.74
2023-03-18T06:22:34.027Z,8.66
2023-03-18T06:27:35.469Z,8.60
2023-03-18T06:32:36.762Z,8.54
2023-03-18T06:37:38.162Z,8.47
2023-03-18T06:42:39.391Z,8.46
2023-03-18T06:47:41.030Z,8.50
2023-03-18T06:52:42.405Z,8.57
2023-03-18T06:57:44.875Z,8.64
2023-03-18T07:02:46.103Z,8.73
2023-03-18T07:07:48.416Z,8.80
2023-03-18T07:12:50.379Z,8.91
2023-03-18T07:17:52.505Z,9.00
2023-03-18T07:22:53.733Z,9.12
2023-03-18T07:27:54.923Z,9.27
2023-03-18T07:32:56.488Z,9.39
2023-03-18T07:37:57.765Z,9.52
2023-03-18T07:42:58.945Z,9.62
2023-03-18T07:48:00.156Z,9.72
2023-03-18T07:53:01.594Z,9.94
2023-03-18T07:58:04.577Z,10.08
2023-03-18T08:03:07.171Z,10.25
2023-03-18T08:08:08.351Z,10.37
2023-03-18T08:13:09.766Z,10.48
2023-03-18T08:18:10.999Z,10.63
2023-03-18T08:23:12.770Z,10.77
2023-03-18T08:28:13.990Z,10.89
2023-03-18T08:33:15.815Z,11.07
2023-03-18T08:38:16.968Z,11.29
2023-03-18T08:43:18.217Z,11.54
2023-03-18T08:48:19.346Z,11.87
2023-03-18T08:53:20.553Z,12.09
2023-03-18T08:58:21.761Z,12.53
2023-03-18T09:03:24.205Z,12.86
2023-03-18T09:08:25.659Z,12.86
2023-03-18T09:13:26.805Z,13.18
2023-03-18T09:18:28.203Z,13.41
2023-03-18T09:23:29.394Z,13.65
2023-03-18T09:28:31.010Z,13.75
2023-03-18T09:33:32.183Z,14.09
2023-03-18T09:38:33.394Z,14.26
2023-03-18T09:43:34.585Z,14.46
2023-03-18T09:48:35.784Z,15.04
2023-03-18T09:53:37.430Z,15.83
2023-03-18T09:58:38.586Z,16.22
2023-03-18T10:03:39.821Z,16.58
2023-03-18T10:08:41.398Z,16.84
2023-03-18T10:13:42.645Z,17.45
2023-03-18T10:18:44.688Z,17.64
2023-03-18T10:23:46.284Z,18.42
2023-03-18T10:28:49.153Z,18.92
2023-03-18T10:33:50.397Z,19.45
2023-03-18T10:38:51.787Z,20.49
2023-03-18T10:43:53.022Z,20.87
2023-03-18T10:48:54.207Z,20.77
2023-03-18T10:53:55.520Z,20.91
2023-03-18T10:58:57.469Z,21.28
2023-03-18T11:03:59.273Z,21.85
2023-03-18T11:09:00.601Z,21.89
2023-03-18T11:14:02.297Z,21.99
2023-03-18T11:19:03.561Z,21.96
2023-03-18T11:24:10.294Z,21.80
2023-03-18T11:29:11.545Z,22.04
2023-03-18T11:34:12.686Z,22.07
2023-03-18T11:39:13.918Z,21.42
2023-03-18T11:44:15.381Z,20.43
2023-03-18T11:49:17.282Z,20.24
2023-03-18T11:54:18.497Z,19.99
2023-03-18T11:59:19.655Z,19.90
2023-03-18T12:04:21.862Z,19.77
2023-03-18T12:09:23.460Z,19.30
2023-03-18T12:14:25.978Z,18.94
2023-03-18T12:19:27.180Z,18.82
2023-03-18T12:24:28.334Z,19.12
2023-03-18T12:29:29.514Z,19.11
2023-03-18T12:34:30.736Z,19.12
2023-03-18T12:39:33.722Z,19.40
2023-03-18T12:44:34.886Z,19.99
2023-03-18T12:49:36.065Z,20.16
2023-03-18T12:54:37.257Z,20.26
2023-03-18T12:59:38.457Z,19.65
2023-03-18T13:04:39.919Z,19.65
2023-03-18T13:09:41.189Z,19.21
2023-03-18T13:14:42.719Z,19.28
2023-03-18T13:19:43.944Z,18.85
2023-03-18T13:24:45.161Z,18.47
2023-03-18T13:29:46.652Z,18.08
2023-03-18T13:34:47.885Z,17.80
2023-03-18T13:39:49.051Z,17.49
2023-03-18T13:44:51.072Z,17.29
2023-03-18T13:49:52.276Z,17.16
2023-03-18T13:54:53.520Z,17.02
2023-03-18T13:59:54.721Z,16.62
2023-03-18T14:04:58.278Z,16.10
2023-03-18T14:10:15.270Z,15.79
2023-03-18T14:15:18.735Z,15.54
2023-03-18T14:20:20.353Z,15.42
2023-03-18T14:25:21.857Z,15.42
2023-03-18T14:30:23.145Z,15.44
2023-03-18T14:35:28.091Z,15.43
2023-03-18T14:40:29.323Z,15.31
2023-03-18T14:45:31.029Z,15.31
2023-03-18T14:50:32.722Z,15.49
2023-03-18T14:55:34.789Z,15.74
2023-03-18T15:00:36.292Z,15.78
2023-03-18T15:05:37.504Z,15.75
2023-03-18T15:10:38.793Z,15.77
2023-03-18T15:15:40.011Z,15.92
2023-03-18T15:20:41.220Z,15.89
2023-03-18T15:25:42.466Z,16.11
2023-03-18T15:30:44.457Z,16.45
2023-03-18T15:35:46.153Z,16.47
2023-03-18T15:40:47.828Z,16.40
2023-03-18T15:45:49.046Z,16.20
2023-03-18T15:50:50.579Z,15.91
2023-03-18T15:55:51.817Z,15.76
2023-03-18T16:00:53.084Z,15.70
2023-03-18T16:05:54.332Z,15.72
2023-03-18T16:10:55.831Z,15.63
2023-03-18T16:15:57.313Z,15.62
2023-03-18T16:20:58.609Z,15.77
2023-03-18T16:25:59.941Z,15.74
2023-03-18T16:31:01.577Z,15.62
2023-03-18T16:36:03.991Z,15.27
2023-03-18T16:41:05.276Z,15.28
2023-03-18T16:46:06.568Z,15.11
2023-03-18T16:51:07.806Z,15.00
2023-03-18T16:56:09.019Z,14.83
2023-03-18T17:01:11.389Z,14.67
2023-03-18T17:06:13.144Z,14.53
2023-03-18T17:11:14.345Z,14.46
2023-03-18T17:16:15.615Z,14.26
2023-03-18T17:21:17.122Z,13.99
2023-03-18T17:26:18.735Z,13.75
2023-03-18T17:31:20.880Z,13.56
2023-03-18T17:36:22.450Z,13.41
2023-03-18T17:41:23.871Z,13.24
2023-03-18T17:46:25.144Z,13.07
2023-03-18T17:51:27.412Z,12.91
2023-03-18T17:56:30.412Z,12.86
2023-03-18T18:01:31.703Z,12.81
2023-03-18T18:06:33.902Z,12.76
2023-03-18T18:11:35.321Z,12.63
2023-03-18T18:16:37.461Z,12.47
2023-03-18T18:21:38.686Z,12.26
2023-03-18T18:26:39.913Z,12.11
2023-03-18T18:31:41.521Z,12.07
2023-03-18T18:36:43.049Z,12.03
2023-03-18T18:41:46.222Z,11.92
2023-03-18T18:46:47.454Z,11.79
2023-03-18T18:51:48.759Z,11.63
2023-03-18T18:56:50.379Z,11.47
2023-03-18T19:01:51.928Z,11.38
2023-03-18T19:06:53.728Z,11.31
2023-03-18T19:11:56.599Z,11.23
2023-03-18T19:16:58.737Z,11.35
2023-03-18T19:22:00.450Z,11.40
2023-03-18T19:27:02.265Z,11.43
2023-03-18T19:32:03.669Z,11.48
2023-03-18T19:37:05.891Z,11.50
2023-03-18T19:42:07.349Z,11.31
2023-03-18T19:47:08.885Z,11.22
2023-03-18T19:52:10.042Z,11.15
2023-03-18T19:57:11.268Z,11.04
2023-03-18T20:02:12.542Z,10.97
2023-03-18T20:07:13.732Z,10.92
2023-03-18T20:12:15.345Z,10.79
2023-03-18T20:17:16.528Z,10.70
2023-03-18T20:22:17.775Z,10.70
2023-03-18T20:27:18.991Z,10.76
2023-03-18T20:32:20.245Z,10.70
2023-03-18T20:37:21.793Z,10.60
2023-03-18T20:42:23.063Z,10.65
2023-03-18T20:47:24.232Z,10.74
2023-03-18T20:52:25.837Z,10.78
2023-03-18T20:57:27.404Z,10.80
2023-03-18T21:02:28.969Z,10.88
2023-03-18T21:07:30.668Z,10.92
2023-03-18T21:12:31.868Z,10.92
2023-03-18T21:17:33.074Z,10.88
2023-03-18T21:22:34.288Z,10.79
2023-03-18T21:27:35.504Z,10.77
2023-03-18T21:32:41.000Z,10.80
2023-03-18T21:37:42.257Z,10.81
2023-03-18T21:42:43.828Z,10.82
2023-03-18T21:47:45.148Z,10.86
2023-03-18T21:52:46.642Z,10.96
2023-03-18T21:57:49.121Z,11.03
2023-03-18T22:02:50.908Z,11.04
2023-03-18T22:07:52.108Z,11.07
2023-03-18T22:12:53.397Z,10.99
2023-03-18T22:17:54.755Z,11.01
2023-03-18T22:22:56.016Z,11.04
2023-03-18T22:27:57.294Z,11.10
2023-03-18T22:32:58.510Z,11.10
2023-03-18T22:37:59.857Z,11.12
2023-03-18T22:43:01.381Z,11.15
2023-03-18T22:48:02.670Z,11.17
2023-03-18T22:53:03.831Z,11.22
2023-03-18T22:58:05.016Z,11.30
2023-03-18T23:03:06.211Z,11.31
2023-03-18T23:08:07.531Z,11.18
2023-03-18T23:13:08.760Z,11.02
2023-03-18T23:18:09.898Z,11.14
2023-03-18T23:23:11.650Z,11.16
2023-03-18T23:28:12.978Z,11.12
2023-03-18T23:33:14.290Z,11.12
2023-03-18T23:38:15.505Z,11.07
2023-03-18T23:43:16.653Z,10.92
2023-03-18T23:48:17.778Z,10.81
2023-03-18T23:53:18.985Z,10.58
2023-03-18T23:58:20.275Z,10.50
